Time;durP1;ratioP1;P1;durP2;ratioP2;P2;SDS_P1;SDS_P2;PMS_P1;PMS_P2;Temp;Humidity;BMP_temperature;BMP_pressure;BME280_temperature;BME280_humidity;BME280_pressure;Samples;Min_cycle;Max_cycle;Signal;HPM_P1;HPM_P2
2023/10/25 00:00:27;;;;;;;18.25;5.45;;;;;;;7.19;100.00;100084.22;4934312;29;20098;-68
2023/10/25 00:02:52;;;;;;;18.55;4.95;;;;;;;7.17;100.00;100087.28;4950260;28;20035;-69
2023/10/25 00:05:18;;;;;;;19.55;5.68;;;;;;;7.15;100.00;100085.94;4966621;28;20255;-69
2023/10/25 00:07:43;;;;;;;19.52;5.05;;;;;;;7.12;100.00;100079.13;4949857;28;20415;-68
2023/10/25 00:10:10;;;;;;;18.17;5.28;;;;;;;7.08;100.00;100078.09;4942717;29;20428;-68
2023/10/25 00:12:36;;;;;;;19.83;5.07;;;;;;;7.03;100.00;100079.00;4933566;29;20032;-68
2023/10/25 00:15:01;;;;;;;18.83;5.60;;;;;;;7.02;100.00;100071.84;4942624;28;20061;-68
2023/10/25 00:17:27;;;;;;;19.33;5.57;;;;;;;6.97;100.00;100069.19;4942712;29;20404;-68
2023/10/25 00:19:52;;;;;;;20.50;6.00;;;;;;;6.99;100.00;100066.94;4933473;29;20162;-68
2023/10/25 00:22:17;;;;;;;19.83;5.82;;;;;;;6.95;100.00;100065.94;4937876;29;20028;-68
2023/10/25 00:24:43;;;;;;;19.83;5.45;;;;;;;6.93;100.00;100065.41;4959484;28;20027;-68
2023/10/25 00:27:08;;;;;;;19.23;5.40;;;;;;;6.89;100.00;100067.16;4950337;28;20027;-68
2023/10/25 00:29:34;;;;;;;18.98;5.60;;;;;;;6.86;100.00;100064.97;4935159;29;20110;-68
2023/10/25 00:31:59;;;;;;;17.25;5.40;;;;;;;6.84;100.00;100064.47;4942041;28;20054;-69
2023/10/25 00:34:24;;;;;;;18.38;5.45;;;;;;;6.84;100.00;100059.78;4941149;28;20039;-68
2023/10/25 00:36:49;;;;;;;18.77;5.32;;;;;;;6.83;100.00;100060.06;4963837;28;20054;-66
2023/10/25 00:39:15;;;;;;;19.17;5.60;;;;;;;6.79;100.00;100059.88;4943049;29;20474;-67
2023/10/25 00:41:40;;;;;;;19.85;5.60;;;;;;;6.77;100.00;100061.28;4952027;28;20046;-68
2023/10/25 00:44:05;;;;;;;20.38;5.07;;;;;;;6.77;100.00;100061.28;4936369;29;20066;-67
2023/10/25 00:46:32;;;;;;;16.52;5.03;;;;;;;6.77;100.00;100058.53;4953073;28;20073;-67
2023/10/25 00:48:59;;;;;;;17.88;5.18;;;;;;;6.76;100.00;100056.91;4948885;28;20088;-67
2023/10/25 00:51:26;;;;;;;16.48;5.07;;;;;;;6.74;100.00;100056.38;4951326;29;20097;-67
2023/10/25 00:53:54;;;;;;;19.75;5.53;;;;;;;6.75;100.00;100058.00;4947218;29;20027;-67
2023/10/25 00:56:24;;;;;;;17.98;5.25;;;;;;;6.71;100.00;100066.03;4949988;28;20064;-67
2023/10/25 00:58:53;;;;;;;15.68;4.55;;;;;;;6.68;100.00;100063.88;4935878;29;20023;-67
2023/10/25 01:01:21;;;;;;;15.00;4.63;;;;;;;6.68;100.00;100069.38;4943040;29;20035;-67
2023/10/25 01:03:47;;;;;;;17.75;4.55;;;;;;;6.64;100.00;100055.44;4951302;29;20034;-68
2023/10/25 01:06:13;;;;;;;17.75;4.78;;;;;;;6.65;100.00;100056.25;4934525;29;20028;-67
2023/10/25 01:08:38;;;;;;;19.95;4.88;;;;;;;6.63;100.00;100059.28;4933835;29;20150;-67
2023/10/25 01:11:04;;;;;;;19.40;5.18;;;;;;;6.61;100.00;100055.22;4948241;29;20502;-68
2023/10/25 01:13:29;;;;;;;19.45;4.88;;;;;;;6.59;100.00;100046.44;4932532;29;20036;-68
2023/10/25 01:15:54;;;;;;;18.30;5.45;;;;;;;6.58;100.00;100048.38;4939818;28;20023;-68
2023/10/25 01:18:20;;;;;;;17.65;4.63;;;;;;;6.58;100.00;100044.81;4942773;29;20043;-68
2023/10/25 01:20:45;;;;;;;17.35;4.88;;;;;;;6.56;100.00;100031.38;4932754;29;20082;-67
2023/10/25 01:23:11;;;;;;;16.80;5.75;;;;;;;6.56;100.00;100040.41;4939491;29;20028;-67
2023/10/25 01:25:38;;;;;;;19.88;5.40;;;;;;;6.55;100.00;100037.97;4932755;29;20420;-67
2023/10/25 01:28:03;;;;;;;18.92;5.07;;;;;;;6.57;100.00;100035.75;4950806;28;20035;-67
2023/10/25 01:30:29;;;;;;;18.83;4.80;;;;;;;6.56;100.00;100034.13;4950772;29;20038;-67
2023/10/25 01:32:54;;;;;;;14.85;4.53;;;;;;;6.56;100.00;100023.94;4948752;29;20383;-67
2023/10/25 01:35:20;;;;;;;18.00;4.50;;;;;;;6.56;100.00;100028.63;4951800;29;20079;-67
2023/10/25 01:37:45;;;;;;;15.95;4.72;;;;;;;6.55;100.00;100025.06;4935728;29;20069;-67
2023/10/25 01:40:11;;;;;;;14.60;4.25;;;;;;;6.54;100.00;100026.19;4937840;29;20090;-68
2023/10/25 01:42:37;;;;;;;17.98;4.80;;;;;;;6.53;100.00;100012.72;4932434;29;20028;-68
2023/10/25 01:45:02;;;;;;;14.30;4.38;;;;;;;6.53;100.00;100015.47;4938591;28;20047;-68
2023/10/25 01:47:28;;;;;;;15.68;4.75;;;;;;;6.53;100.00;100001.72;4949498;29;20176;-69
2023/10/25 01:49:54;;;;;;;23.60;7.20;;;;;;;6.58;100.00;100004.41;4948487;29;20031;-67
2023/10/25 01:52:19;;;;;;;19.45;5.43;;;;;;;6.58;100.00;99995.34;4951704;29;20329;-67
2023/10/25 01:54:46;;;;;;;18.48;5.40;;;;;;;6.56;100.00;99992.91;4944215;28;20024;-67
2023/10/25 01:57:11;;;;;;;16.63;4.70;;;;;;;6.55;100.00;99986.59;4932617;29;20032;-67
2023/10/25 01:59:37;;;;;;;20.15;5.03;;;;;;;6.56;100.00;99996.44;4932459;29;20078;-66
2023/10/25 02:02:02;;;;;;;18.00;4.80;;;;;;;6.56;100.00;99998.41;4939066;29;20035;-67
2023/10/25 02:04:27;;;;;;;17.92;4.85;;;;;;;6.51;100.00;99982.81;4951882;29;20115;-68
2023/10/25 02:06:53;;;;;;;14.32;4.20;;;;;;;6.51;100.00;99982.81;4948176;29;20713;-67
2023/10/25 02:09:19;;;;;;;17.98;4.82;;;;;;;6.49;100.00;99979.53;4951985;28;20158;-67
2023/10/25 02:11:44;;;;;;;18.02;5.10;;;;;;;6.49;100.00;99973.25;4943571;28;20027;-68
2023/10/25 02:14:10;;;;;;;15.20;4.90;;;;;;;6.46;100.00;99963.69;4939733;29;20047;-68
2023/10/25 02:16:35;;;;;;;15.43;4.35;;;;;;;6.47;100.00;99973.53;4936091;29;20114;-68
2023/10/25 02:19:00;;;;;;;18.52;5.43;;;;;;;6.49;100.00;99965.81;4942611;29;20035;-68
2023/10/25 02:21:26;;;;;;;18.35;4.57;;;;;;;6.50;100.00;99975.69;4937064;29;20077;-68
2023/10/25 02:23:53;;;;;;;16.98;4.50;;;;;;;6.45;100.00;99958.47;4955263;29;20051;-67
2023/10/25 02:26:18;;;;;;;19.02;4.47;;;;;;;6.47;100.00;99970.78;4954852;28;20031;-67
2023/10/25 02:28:44;;;;;;;15.43;4.55;;;;;;;6.48;100.00;99975.16;4953144;28;20150;-67
2023/10/25 02:31:09;;;;;;;14.32;4.00;;;;;;;6.50;100.00;99969.38;4950625;28;20490;-68
2023/10/25 02:33:35;;;;;;;16.17;4.18;;;;;;;6.51;100.00;99965.53;4945825;28;20062;-68
2023/10/25 02:36:00;;;;;;;15.63;4.80;;;;;;;6.54;100.00;99964.91;4954782;28;20043;-67
2023/10/25 02:38:25;;;;;;;17.55;4.80;;;;;;;6.56;100.00;99968.16;4950758;29;20351;-68
2023/10/25 02:40:50;;;;;;;16.95;4.57;;;;;;;6.58;100.00;99957.69;4953220;29;20030;-68
2023/10/25 02:43:16;;;;;;;17.40;4.75;;;;;;;6.58;100.00;99954.94;4952172;28;20034;-68
2023/10/25 02:45:41;;;;;;;15.65;4.30;;;;;;;6.57;100.00;99953.31;4948979;29;20511;-67
2023/10/25 02:48:12;;;;;;;17.92;5.30;;;;;;;6.61;100.00;99957.09;4954532;29;20023;-68
2023/10/25 02:50:37;;;;;;;21.38;5.75;;;;;;;6.62;100.00;99949.66;4963850;28;20035;-68
2023/10/25 02:53:03;;;;;;;15.73;4.15;;;;;;;6.64;100.00;99945.50;4954021;29;20049;-68
2023/10/25 02:55:28;;;;;;;17.58;4.72;;;;;;;6.63;100.00;99932.88;4946849;28;20044;-69
2023/10/25 02:57:54;;;;;;;15.02;4.22;;;;;;;6.65;100.00;99925.13;4938033;29;20114;-68
2023/10/25 03:00:19;;;;;;;17.63;4.40;;;;;;;6.68;100.00;99929.22;4955183;28;20024;-68
2023/10/25 03:02:45;;;;;;;16.98;4.47;;;;;;;6.70;100.00;99927.81;4950502;28;20133;-68
2023/10/25 03:05:11;;;;;;;16.90;4.40;;;;;;;6.70;100.00;99924.22;4952331;28;20454;-67
2023/10/25 03:07:36;;;;;;;12.25;3.97;;;;;;;6.70;100.00;99925.06;4949483;29;20507;-68
2023/10/25 03:10:02;;;;;;;14.80;3.92;;;;;;;6.69;100.00;99906.94;4953710;28;20126;-67
2023/10/25 03:12:27;;;;;;;16.02;4.22;;;;;;;6.70;100.00;99913.22;4949909;28;20194;-67
2023/10/25 03:14:52;;;;;;;16.02;4.50;;;;;;;6.67;100.00;99911.91;4952618;28;20038;-67
2023/10/25 03:17:18;;;;;;;18.73;5.47;;;;;;;6.66;100.00;99913.03;4948619;28;20027;-68
2023/10/25 03:19:43;;;;;;;17.05;5.00;;;;;;;6.64;100.00;99904.25;4951896;28;20171;-68
2023/10/25 03:22:08;;;;;;;20.13;4.63;;;;;;;6.63;100.00;99899.88;4953121;29;20035;-68
2023/10/25 03:24:34;;;;;;;17.83;4.80;;;;;;;6.61;100.00;99893.91;4950131;29;20391;-67
2023/10/25 03:26:59;;;;;;;19.65;5.22;;;;;;;6.64;100.00;99900.72;4950779;28;20039;-67
2023/10/25 03:29:24;;;;;;;23.15;5.10;;;;;;;6.64;100.00;99898.75;4942709;28;20133;-67
2023/10/25 03:31:50;;;;;;;23.23;5.20;;;;;;;6.62;100.00;99889.19;4934533;29;20043;-66
2023/10/25 03:34:18;;;;;;;17.13;4.82;;;;;;;6.62;100.00;99883.72;4945091;28;20046;-67
2023/10/25 03:36:44;;;;;;;17.23;5.00;;;;;;;6.63;100.00;99888.09;4935844;29;20083;-67
2023/10/25 03:39:13;;;;;;;18.48;5.07;;;;;;;6.68;100.00;99887.97;4936816;29;20371;-67
2023/10/25 03:41:40;;;;;;;23.15;5.28;;;;;;;6.71;100.00;99887.38;4935049;29;20031;-68
2023/10/25 03:44:05;;;;;;;20.08;5.47;;;;;;;6.75;100.00;99884.84;4942945;29;20034;-67
2023/10/25 03:46:31;;;;;;;21.92;6.05;;;;;;;6.76;100.00;99880.97;4942668;28;20040;-67
2023/10/25 03:48:56;;;;;;;22.30;5.78;;;;;;;6.81;100.00;99878.94;4942341;29;20034;-66
2023/10/25 03:51:21;;;;;;;20.95;5.43;;;;;;;6.82;100.00;99877.81;4947822;28;20034;-66
2023/10/25 03:53:46;;;;;;;20.63;5.55;;;;;;;6.85;100.00;99877.19;4952855;29;20371;-67
2023/10/25 03:56:12;;;;;;;22.65;5.90;;;;;;;6.87;100.00;99866.72;4954240;28;20181;-67
2023/10/25 03:58:37;;;;;;;21.17;6.22;;;;;;;6.93;100.00;99866.63;4949634;29;20031;-67
2023/10/25 04:01:05;;;;;;;21.00;6.32;;;;;;;6.96;100.00;99868.75;4958681;28;20042;-66
2023/10/25 04:03:31;;;;;;;21.88;5.90;;;;;;;6.93;100.00;99856.44;4938477;28;20036;-66
2023/10/25 04:05:56;;;;;;;20.10;5.97;;;;;;;7.01;100.00;99865.91;4935570;29;20349;-67
2023/10/25 04:08:23;;;;;;;21.35;6.22;;;;;;;7.02;100.00;99864.78;4952797;28;20051;-67
2023/10/25 04:10:53;;;;;;;19.75;5.90;;;;;;;7.08;100.00;99866.31;4947355;29;20050;-67
2023/10/25 04:13:19;;;;;;;24.48;6.60;;;;;;;7.11;100.00;99862.13;4947800;28;20039;-67
2023/10/25 04:15:57;;;;;;;19.95;6.70;;;;;;;7.14;100.00;99858.75;4942899;29;20032;-67
2023/10/25 04:18:27;;;;;;;20.85;5.72;;;;;;;7.14;100.00;99856.00;4934000;29;20091;-67
2023/10/25 04:20:54;;;;;;;22.48;6.10;;;;;;;7.14;100.00;99851.31;4935613;29;20027;-67
2023/10/25 04:23:20;;;;;;;21.73;6.30;;;;;;;7.16;100.00;99853.78;4947821;28;20090;-67
2023/10/25 04:25:45;;;;;;;22.60;6.90;;;;;;;7.17;100.00;99852.66;4933535;29;20039;-67
2023/10/25 04:28:11;;;;;;;19.38;6.43;;;;;;;7.18;100.00;99857.00;4939391;29;20020;-67
2023/10/25 04:30:36;;;;;;;20.63;6.25;;;;;;;7.16;100.00;99851.03;4950742;28;20079;-68
2023/10/25 04:33:02;;;;;;;19.88;6.07;;;;;;;7.17;100.00;99861.72;4936175;28;20032;-68
2023/10/25 04:35:28;;;;;;;20.52;6.10;;;;;;;7.19;100.00;99850.38;4942440;28;20506;-67
2023/10/25 04:37:55;;;;;;;18.27;6.05;;;;;;;7.22;100.00;99860.00;4951975;29;20090;-67
2023/10/25 04:40:21;;;;;;;20.60;5.85;;;;;;;7.22;100.00;99858.03;4933257;29;20032;-67
2023/10/25 04:42:48;;;;;;;20.20;6.68;;;;;;;7.22;100.00;99843.50;4933041;29;20024;-68
2023/10/25 04:45:14;;;;;;;19.85;6.50;;;;;;;7.24;100.00;99853.06;4944236;29;20035;-67
2023/10/25 04:47:40;;;;;;;17.13;5.80;;;;;;;7.21;100.00;99845.41;4933271;29;20115;-67
2023/10/25 04:50:06;;;;;;;18.60;5.60;;;;;;;7.26;100.00;99838.97;4941621;29;20113;-68
2023/10/25 04:52:31;;;;;;;19.50;5.75;;;;;;;7.23;100.00;99834.91;4934890;29;20114;-68
2023/10/25 04:54:56;;;;;;;16.35;5.38;;;;;;;7.28;100.00;99834.78;4933779;29;20032;-68
2023/10/25 04:57:22;;;;;;;18.90;5.47;;;;;;;7.30;100.00;99831.75;4946128;28;20038;-68
2023/10/25 04:59:47;;;;;;;19.05;5.65;;;;;;;7.32;100.00;99827.56;4952361;29;20043;-68
2023/10/25 05:02:13;;;;;;;18.65;5.57;;;;;;;7.36;100.00;99835.22;4958343;28;20027;-69
2023/10/25 05:04:38;;;;;;;19.10;5.40;;;;;;;7.36;100.00;99826.94;4941146;28;20075;-68
2023/10/25 05:07:04;;;;;;;20.20;5.70;;;;;;;7.36;100.00;99816.75;4932938;29;20063;-68
2023/10/25 05:09:32;;;;;;;17.85;5.10;;;;;;;7.39;100.00;99818.06;4933078;29;20408;-68
2023/10/25 05:12:02;;;;;;;17.63;5.57;;;;;;;7.39;100.00;99804.31;4933016;29;20031;-68
2023/10/25 05:14:28;;;;;;;19.25;5.45;;;;;;;7.38;100.00;99797.16;4948478;29;20118;-68
2023/10/25 05:16:54;;;;;;;18.88;5.28;;;;;;;7.38;100.00;99787.00;4936949;29;20111;-68
2023/10/25 05:19:19;;;;;;;19.95;5.57;;;;;;;7.46;100.00;99788.19;4932696;29;20051;-68
2023/10/25 05:21:49;;;;;;;18.92;5.38;;;;;;;7.45;100.00;99790.13;4940533;28;20027;-68
2023/10/25 05:24:15;;;;;;;20.23;5.80;;;;;;;7.47;100.00;99790.63;4947681;29;20402;-68
2023/10/25 05:26:41;;;;;;;18.55;5.40;;;;;;;7.49;100.00;99784.81;4944514;29;20104;-67
2023/10/25 05:29:06;;;;;;;16.60;5.60;;;;;;;7.51;100.00;99781.75;4932548;29;20031;-67
2023/10/25 05:31:34;;;;;;;18.70;5.15;;;;;;;7.47;100.00;99776.03;4932700;29;20492;-68
2023/10/25 05:34:00;;;;;;;17.65;5.30;;;;;;;7.50;100.00;99780.94;4949588;29;20039;-67
2023/10/25 05:36:25;;;;;;;16.45;5.35;;;;;;;7.51;100.00;99777.06;4953498;28;20038;-66
2023/10/25 05:38:51;;;;;;;17.52;4.95;;;;;;;7.51;100.00;99771.53;4945147;29;20079;-66
2023/10/25 05:41:22;;;;;;;16.20;4.65;;;;;;;7.53;100.00;99768.47;4947309;29;20442;-66
2023/10/25 05:43:59;;;;;;;16.38;4.75;;;;;;;7.50;100.00;99767.16;4939216;29;20395;-67
2023/10/25 05:46:25;;;;;;;19.55;4.72;;;;;;;7.55;100.00;99766.22;4952267;29;20049;-69
2023/10/25 05:48:50;;;;;;;16.67;5.00;;;;;;;7.56;100.00;99763.16;4938961;29;20027;-68
2023/10/25 05:51:16;;;;;;;18.10;4.47;;;;;;;7.57;100.00;99767.53;4934958;29;20063;-68
2023/10/25 05:53:41;;;;;;;17.48;4.55;;;;;;;7.56;100.00;99765.91;4935037;29;20399;-67
2023/10/25 05:56:07;;;;;;;16.90;4.38;;;;;;;7.56;100.00;99765.09;4935068;29;20349;-68
2023/10/25 05:58:33;;;;;;;17.90;4.63;;;;;;;7.56;100.00;99759.59;4934675;29;20114;-68
2023/10/25 06:01:03;;;;;;;16.45;4.80;;;;;;;7.57;100.00;99764.78;4951736;29;20035;-67
2023/10/25 06:03:28;;;;;;;17.27;4.55;;;;;;;7.58;100.00;99749.91;4953777;28;20134;-67
2023/10/25 06:05:57;;;;;;;15.25;4.07;;;;;;;7.57;100.00;99745.53;4943995;29;20114;-67
2023/10/25 06:08:23;;;;;;;14.48;4.30;;;;;;;7.60;100.00;99744.09;4950919;28;20115;-66
2023/10/25 06:10:50;;;;;;;15.77;4.20;;;;;;;7.44;100.00;99716.13;4973147;28;20451;-66
2023/10/25 06:13:16;;;;;;;17.05;4.28;;;;;;;7.60;100.00;99746.84;4948631;29;20066;-67
2023/10/25 06:15:41;;;;;;;14.73;4.20;;;;;;;7.60;100.00;99746.84;4942324;29;20055;-67
2023/10/25 06:18:09;;;;;;;15.07;4.35;;;;;;;7.61;100.00;99742.94;4953878;29;20085;-67
2023/10/25 06:20:34;;;;;;;15.18;4.22;;;;;;;7.63;100.00;99743.47;4942603;29;20031;-66
2023/10/25 06:23:00;;;;;;;15.93;4.60;;;;;;;7.61;100.00;99746.53;4953349;29;20094;-67
2023/10/25 06:25:27;;;;;;;15.70;4.30;;;;;;;7.62;100.00;99733.56;4938867;29;20039;-67
2023/10/25 06:27:52;;;;;;;14.32;3.88;;;;;;;7.63;100.00;99740.69;4934221;29;20027;-67
2023/10/25 06:30:17;;;;;;;14.85;4.03;;;;;;;7.66;100.00;99742.84;4941747;28;20513;-66
2023/10/25 06:32:43;;;;;;;15.88;4.30;;;;;;;7.69;100.00;99735.88;4942841;29;20039;-68
2023/10/25 06:35:08;;;;;;;14.45;4.38;;;;;;;7.69;100.00;99731.22;4944304;29;20039;-67
2023/10/25 06:37:34;;;;;;;16.58;4.90;;;;;;;7.70;100.00;99729.25;4943074;29;20151;-67
2023/10/25 06:39:59;;;;;;;15.35;4.45;;;;;;;7.74;100.00;99727.50;4933648;29;20036;-67
2023/10/25 06:42:25;;;;;;;17.00;4.60;;;;;;;7.76;100.00;99723.31;4933376;29;20464;-67
2023/10/25 06:44:51;;;;;;;15.93;4.35;;;;;;;7.78;100.00;99723.81;4949885;29;20027;-68
2023/10/25 06:47:16;;;;;;;16.08;4.40;;;;;;;7.82;100.00;99712.97;4952337;28;20037;-68
2023/10/25 06:49:42;;;;;;;16.58;4.43;;;;;;;7.82;100.00;99699.22;4932343;29;20182;-67
2023/10/25 06:52:08;;;;;;;12.52;4.22;;;;;;;7.86;100.00;99696.63;4933288;29;20118;-67
2023/10/25 06:54:34;;;;;;;16.17;4.40;;;;;;;7.87;100.00;99693.56;4932768;28;20087;-67
2023/10/25 06:57:00;;;;;;;14.55;4.30;;;;;;;7.87;100.00;99692.75;4933251;29;20035;-67
2023/10/25 06:59:25;;;;;;;17.02;4.40;;;;;;;7.90;100.00;99692.94;4933310;29;20040;-67
2023/10/25 07:02:04;;;;;;;15.02;4.20;;;;;;;7.91;100.00;99680.78;4933982;29;20081;-68
2023/10/25 07:04:29;;;;;;;14.93;3.90;;;;;;;7.97;100.00;99682.28;4942607;28;20027;-68
2023/10/25 07:06:55;;;;;;;15.02;4.22;;;;;;;8.00;100.00;99674.50;4955181;28;20048;-69
2023/10/25 07:09:20;;;;;;;16.23;4.50;;;;;;;8.02;100.00;99664.00;4949624;28;20059;-68
2023/10/25 07:11:46;;;;;;;15.35;4.00;;;;;;;8.03;100.00;99658.16;4937748;29;20023;-68
2023/10/25 07:14:11;;;;;;;13.77;3.75;;;;;;;8.06;100.00;99664.97;4944260;28;20039;-67
2023/10/25 07:16:37;;;;;;;16.05;4.43;;;;;;;8.04;100.00;99650.69;4951829;29;20482;-67
2023/10/25 07:19:02;;;;;;;15.20;4.25;;;;;;;8.09;100.00;99662.38;4949816;28;20087;-67
2023/10/25 07:21:28;;;;;;;15.10;4.03;;;;;;;8.11;100.00;99659.34;4945950;29;20023;-67
2023/10/25 07:23:53;;;;;;;14.60;4.18;;;;;;;8.11;100.00;99651.06;4954298;29;20468;-66
2023/10/25 07:26:18;;;;;;;16.63;4.50;;;;;;;8.17;100.00;99644.28;4946351;29;20165;-67
2023/10/25 07:28:46;;;;;;;17.75;4.88;;;;;;;8.16;100.00;99647.34;4949515;28;20442;-67
2023/10/25 07:31:11;;;;;;;13.27;3.85;;;;;;;8.21;100.00;99650.78;4954975;28;20062;-66
2023/10/25 07:33:38;;;;;;;14.10;3.83;;;;;;;8.24;100.00;99638.31;4945984;29;20451;-66
2023/10/25 07:36:03;;;;;;;12.68;3.75;;;;;;;8.23;100.00;99634.72;4941080;29;20046;-67
2023/10/25 07:38:29;;;;;;;13.27;3.70;;;;;;;8.25;100.00;99629.69;4947477;29;20027;-68
2023/10/25 07:40:54;;;;;;;12.88;3.63;;;;;;;8.29;100.00;99627.13;4964941;28;20129;-68
2023/10/25 07:43:20;;;;;;;14.55;3.80;;;;;;;8.31;100.00;99633.13;4958692;28;20049;-67
2023/10/25 07:45:46;;;;;;;13.00;3.65;;;;;;;8.25;100.00;99624.19;4948319;29;20031;-69
2023/10/25 07:48:11;;;;;;;11.88;3.47;;;;;;;8.29;100.00;99638.13;4953241;28;20066;-67
2023/10/25 07:50:37;;;;;;;13.48;3.83;;;;;;;8.29;100.00;99627.13;4953908;29;20042;-67
2023/10/25 07:53:02;;;;;;;15.43;3.70;;;;;;;8.32;100.00;99620.97;4954248;29;20452;-67
2023/10/25 07:55:29;;;;;;;15.38;3.55;;;;;;;8.30;100.00;99622.44;4952324;28;20099;-67
2023/10/25 07:57:54;;;;;;;16.48;4.47;;;;;;;8.32;100.00;99611.88;4952802;29;20058;-67
2023/10/25 08:00:20;;;;;;;14.90;3.83;;;;;;;8.35;100.00;99611.25;4953510;29;20035;-68
2023/10/25 08:02:45;;;;;;;13.77;3.65;;;;;;;8.36;100.00;99610.91;4953463;29;20353;-69
2023/10/25 08:05:10;;;;;;;10.88;3.47;;;;;;;8.39;100.00;99601.22;4956475;29;20035;-66
2023/10/25 08:07:36;;;;;;;11.55;3.63;;;;;;;8.42;100.00;99603.31;4954809;28;20428;-66
2023/10/25 08:10:04;;;;;;;14.45;3.60;;;;;;;8.45;100.00;99599.91;4938783;28;20098;-69
2023/10/25 08:12:33;;;;;;;13.02;4.13;;;;;;;8.48;100.00;99587.47;4933967;29;20027;-68
2023/10/25 08:14:58;;;;;;;17.83;3.95;;;;;;;8.55;100.00;99582.28;4933537;29;20155;-67
2023/10/25 08:17:23;;;;;;;15.35;4.47;;;;;;;8.58;100.00;99576.13;4938270;29;20035;-67
2023/10/25 08:19:48;;;;;;;14.93;4.20;;;;;;;8.63;100.00;99567.69;4939577;28;20368;-67
2023/10/25 08:22:14;;;;;;;14.10;3.70;;;;;;;8.68;100.00;99567.53;4944024;29;20030;-68
2023/10/25 08:24:39;;;;;;;12.93;4.05;;;;;;;8.72;100.00;99567.69;4952527;28;20043;-67
2023/10/25 08:27:04;;;;;;;15.60;4.38;;;;;;;8.73;100.00;99563.78;4953112;29;20471;-68
2023/10/25 08:29:30;;;;;;;17.00;4.20;;;;;;;8.76;100.00;99562.31;4952930;29;20183;-68
2023/10/25 08:31:55;;;;;;;13.52;3.90;;;;;;;8.77;100.00;99564.78;4949477;29;20490;-68
2023/10/25 08:34:21;;;;;;;14.02;3.97;;;;;;;8.77;100.00;99564.78;4949935;29;20035;-67
2023/10/25 08:36:46;;;;;;;16.42;4.45;;;;;;;8.81;100.00;99564.94;4947179;29;20469;-67
2023/10/25 08:39:11;;;;;;;15.07;4.38;;;;;;;8.80;100.00;99555.84;4939000;29;20050;-68
2023/10/25 08:41:39;;;;;;;17.45;4.72;;;;;;;8.84;100.00;99558.75;4951384;28;20027;-67
2023/10/25 08:44:05;;;;;;;15.68;4.90;;;;;;;8.86;100.00;99545.44;4951681;29;20034;-68
2023/10/25 08:46:33;;;;;;;17.60;4.95;;;;;;;8.90;100.00;99543.66;4951915;28;20071;-67
2023/10/25 08:48:58;;;;;;;18.20;5.28;;;;;;;8.89;100.00;99542.84;4951609;29;20031;-67
2023/10/25 08:51:24;;;;;;;18.60;5.47;;;;;;;8.93;100.00;99543.00;4951880;29;20038;-68
2023/10/25 08:53:52;;;;;;;17.10;5.20;;;;;;;8.93;100.00;99529.22;4951360;28;20027;-68
2023/10/25 08:56:17;;;;;;;18.05;5.07;;;;;;;9.01;100.00;99535.84;4942775;29;20035;-68
2023/10/25 08:58:42;;;;;;;14.95;5.00;;;;;;;9.01;100.00;99522.06;4948204;29;20039;-68
2023/10/25 09:01:08;;;;;;;18.08;5.30;;;;;;;9.04;100.00;99521.41;4950454;28;20047;-68
2023/10/25 09:03:38;;;;;;;15.70;4.88;;;;;;;9.05;100.00;99515.56;4934654;28;20102;-67
2023/10/25 09:06:06;;;;;;;18.52;5.10;;;;;;;9.08;100.00;99518.81;4950409;28;20105;-67
2023/10/25 09:08:32;;;;;;;17.17;5.00;;;;;;;9.09;100.00;99512.94;4951515;29;20051;-67
2023/10/25 09:11:02;;;;;;;17.42;5.25;;;;;;;9.12;100.00;99522.50;4952597;28;20080;-67
2023/10/25 09:13:29;;;;;;;15.93;4.85;;;;;;;9.14;100.00;99517.47;4951318;29;20042;-67
2023/10/25 09:16:08;;;;;;;17.65;5.10;;;;;;;9.19;100.00;99511.81;4937321;29;20045;-67
2023/10/25 09:18:34;;;;;;;19.08;6.32;;;;;;;9.18;100.00;99510.97;4932359;29;20031;-67
2023/10/25 09:21:01;;;;;;;17.95;5.70;;;;;;;9.17;100.00;99503.84;4943279;29;20063;-67
2023/10/25 09:23:28;;;;;;;15.43;5.10;;;;;;;9.13;100.00;99500.13;4950351;29;20758;-67
2023/10/25 09:25:58;;;;;;;15.38;4.82;;;;;;;9.09;100.00;99482.59;4951898;28;20089;-66
2023/10/25 09:28:29;;;;;;;16.70;5.15;;;;;;;9.02;100.00;99465.75;4951914;28;20133;-67
2023/10/25 09:30:57;;;;;;;18.30;5.22;;;;;;;9.01;100.00;99469.66;4952920;28;20109;-67
2023/10/25 09:33:23;;;;;;;15.88;5.00;;;;;;;8.98;100.00;99470.28;4952119;28;20054;-67
2023/10/25 09:35:50;;;;;;;17.77;5.78;;;;;;;8.93;100.00;99465.78;4951624;28;20464;-67
2023/10/25 09:38:16;;;;;;;18.25;5.50;;;;;;;8.92;100.00;99466.94;4951453;28;20125;-68
2023/10/25 09:40:41;;;;;;;18.90;6.05;;;;;;;8.92;100.00;99466.94;4951534;28;20704;-67
2023/10/25 09:43:14;;;;;;;17.52;5.93;;;;;;;8.93;100.00;99479.56;4952073;28;20039;-67
2023/10/25 09:45:42;;;;;;;16.98;5.60;;;;;;;8.87;100.00;99475.38;4946452;28;20031;-68
2023/10/25 09:48:11;;;;;;;18.90;6.10;;;;;;;8.93;100.00;99485.06;4943622;28;20046;-68
2023/10/25 09:50:40;;;;;;;21.52;6.50;;;;;;;8.97;100.00;99479.75;4949748;29;20490;-69
2023/10/25 09:53:26;;;;;;;19.15;6.43;;;;;;;9.02;100.00;99485.88;4933179;29;20070;-68
2023/10/25 09:56:00;;;;;;;19.83;5.50;;;;;;;9.00;100.00;99468.84;4933448;29;20106;-68
2023/10/25 09:58:27;;;;;;;18.00;5.93;;;;;;;8.99;100.00;99461.72;4940934;29;20091;-68
2023/10/25 10:00:52;;;;;;;17.90;5.78;;;;;;;8.93;100.00;99440.94;4944973;29;20467;-69
2023/10/25 10:03:37;;;;;;;19.95;6.80;;;;;;;8.88;100.00;99424.59;4942381;29;20039;-68
2023/10/25 10:06:35;;;;;;;19.10;6.28;;;;;;;8.86;100.00;99427.69;4941823;29;20405;-68
2023/10/25 10:09:12;;;;;;;18.42;5.93;;;;;;;8.82;100.00;99426.72;4937487;29;20053;-69
2023/10/25 10:11:43;;;;;;;18.15;5.68;;;;;;;8.76;100.00;99419.78;4952182;28;20373;-70
2023/10/25 10:14:29;;;;;;;19.13;6.28;;;;;;;8.79;100.00;99432.88;4944702;29;20057;-70
2023/10/25 10:17:02;;;;;;;22.20;7.15;;;;;;;8.76;100.00;99427.22;4951011;29;20031;-71
2023/10/25 10:19:30;;;;;;;18.20;6.28;;;;;;;8.76;100.00;99424.47;4935327;29;20079;-70
2023/10/25 10:22:03;;;;;;;20.05;6.43;;;;;;;8.79;100.00;99418.28;4945264;29;20031;-70
2023/10/25 10:24:48;;;;;;;17.63;6.07;;;;;;;8.76;100.00;99407.91;4952764;28;20027;-69
2023/10/25 10:27:18;;;;;;;19.02;6.60;;;;;;;8.77;100.00;99406.78;4952845;28;20459;-69
2023/10/25 10:29:48;;;;;;;19.52;6.18;;;;;;;8.72;100.00;99397.56;4952420;28;20387;-69
2023/10/25 10:32:14;;;;;;;19.55;6.63;;;;;;;8.79;100.00;99393.47;4954087;29;20039;-70
2023/10/25 10:35:22;;;;;;;19.00;6.50;;;;;;;8.76;100.00;99383.94;4955571;29;20046;-70
2023/10/25 10:38:49;;;;;;;21.92;8.13;;;;;;;8.73;100.00;99373.53;4954245;29;20388;-72
2023/10/25 10:44:58;;;;;;;19.77;6.40;;;;;;;8.78;100.00;99362.34;4908041;29;20040;-72
2023/10/25 10:47:38;;;;;;;20.35;6.78;;;;;;;8.77;100.00;99360.72;4939458;29;20043;-70
2023/10/25 10:50:21;;;;;;;19.35;6.72;;;;;;;8.78;100.00;99351.31;4944856;29;20042;-70
2023/10/25 10:52:48;;;;;;;19.73;6.55;;;;;;;8.77;100.00;99341.44;4946328;29;20051;-70
2023/10/25 10:55:15;;;;;;;19.27;6.53;;;;;;;8.79;100.00;99330.06;4946176;29;20031;-71
2023/10/25 10:57:41;;;;;;;21.65;7.35;;;;;;;8.75;100.00;99327.16;4942245;29;20129;-71
2023/10/25 11:00:26;;;;;;;19.85;6.22;;;;;;;8.76;100.00;99323.25;4946756;28;20478;-73
2023/10/25 11:03:05;;;;;;;19.92;6.68;;;;;;;8.72;100.00;99311.25;4949248;29;20093;-71
2023/10/25 11:05:36;;;;;;;19.88;6.90;;;;;;;8.80;100.00;99312.38;4940764;29;20059;-71
2023/10/25 11:08:44;;;;;;;20.35;7.47;;;;;;;8.70;100.00;99284.03;4937292;29;20058;-72
2023/10/25 11:11:38;;;;;;;20.10;6.85;;;;;;;8.71;100.00;99277.38;4900297;29;20052;-70
2023/10/25 11:14:51;;;;;;;;;;;;;;;;;;;;;
2023/10/25 11:17:55;;;;;;;19.50;6.60;;;;;;;8.93;100.00;99288.47;4888504;29;20052;-70
2023/10/25 11:21:16;;;;;;;18.58;6.10;;;;;;;8.98;100.00;99283.56;4913203;29;20078;-72
2023/10/25 11:23:55;;;;;;;18.92;6.22;;;;;;;9.00;100.00;99285.97;4901659;29;20071;-72
2023/10/25 11:26:53;;;;;;;18.90;6.03;;;;;;;9.01;100.00;99274.63;4936447;29;20111;-71
2023/10/25 11:32:27;;;;;;;18.45;5.70;;;;;;;9.09;100.00;99264.66;4910201;29;20107;-70
2023/10/25 11:35:09;;;;;;;17.38;5.60;;;;;;;9.07;100.00;99261.41;4953535;29;20045;-69